Time;durP1;ratioP1;P1;durP2;ratioP2;P2;SDS_P1;SDS_P2;PMS_P1;PMS_P2;Temp;Humidity;BMP_temperature;BMP_pressure;BME280_temperature;BME280_humidity;BME280_pressure;Samples;Min_cycle;Max_cycle;Signal;HPM_P1;HPM_P2
2022/05/19 00:01:19;;;;;;;1.30;0.70;;;18.10;99.90;;;;;;5093774;28;20448;-84
2022/05/19 00:03:46;;;;;;;0.53;0.53;;;18.10;99.90;;;;;;5093861;28;20436;-84
2022/05/19 00:06:14;;;;;;;0.60;0.60;;;18.10;99.90;;;;;;5093919;28;20444;-84
2022/05/19 00:08:41;;;;;;;0.43;0.43;;;18.00;99.90;;;;;;5094273;28;20439;-84
2022/05/19 00:11:12;;;;;;;1.17;0.63;;;18.00;99.90;;;;;;5093983;28;20467;-84
2022/05/19 00:13:40;;;;;;;0.63;0.60;;;17.90;99.90;;;;;;5093649;28;20435;-84
2022/05/19 00:16:07;;;;;;;0.70;0.57;;;17.90;99.90;;;;;;5093156;28;20451;-84
2022/05/19 00:18:35;;;;;;;0.73;0.70;;;17.90;99.90;;;;;;5093768;28;20443;-84
2022/05/19 00:21:02;;;;;;;0.60;0.60;;;17.80;99.90;;;;;;5093846;28;20475;-83
2022/05/19 00:23:30;;;;;;;0.97;0.83;;;17.80;99.90;;;;;;5093687;28;20448;-84
2022/05/19 00:25:56;;;;;;;0.70;0.70;;;17.80;99.90;;;;;;5093762;28;20456;-84
2022/05/19 00:28:23;;;;;;;0.70;0.67;;;17.80;99.90;;;;;;5094525;28;20463;-84
2022/05/19 00:30:50;;;;;;;1.37;1.00;;;17.70;99.90;;;;;;5093415;28;20995;-84
2022/05/19 00:33:17;;;;;;;0.50;0.50;;;17.80;99.90;;;;;;5093382;28;21018;-83
2022/05/19 00:35:43;;;;;;;1.43;0.87;;;17.70;99.90;;;;;;5093524;28;20447;-84
2022/05/19 00:38:11;;;;;;;0.90;0.70;;;17.70;99.90;;;;;;5093714;28;20444;-84
2022/05/19 00:40:39;;;;;;;1.57;0.70;;;17.70;99.90;;;;;;5093444;28;20491;-84
2022/05/19 00:43:06;;;;;;;0.63;0.60;;;17.70;99.90;;;;;;5093309;28;20939;-84
2022/05/19 00:45:41;;;;;;;0.60;0.60;;;17.60;99.90;;;;;;5093323;28;21027;-84
2022/05/19 00:48:16;;;;;;;0.90;0.60;;;17.60;99.90;;;;;;5093376;28;20465;-84
2022/05/19 00:50:46;;;;;;;0.57;0.57;;;17.60;99.90;;;;;;5093508;28;20473;-84
2022/05/19 00:53:21;;;;;;;2.10;0.70;;;17.60;99.90;;;;;;5093468;28;20479;-84
2022/05/19 00:55:52;;;;;;;0.40;0.40;;;17.50;99.90;;;;;;5093677;28;20442;-84
2022/05/19 00:58:24;;;;;;;1.00;0.87;;;17.50;99.90;;;;;;5093570;28;20412;-84
2022/05/19 01:00:51;;;;;;;0.67;0.60;;;17.50;99.90;;;;;;5093405;28;20476;-83
2022/05/19 01:03:19;;;;;;;0.70;0.70;;;17.50;99.90;;;;;;5093106;28;20821;-84
2022/05/19 01:05:49;;;;;;;0.60;0.60;;;17.40;99.90;;;;;;5093094;28;20966;-84
2022/05/19 01:08:19;;;;;;;0.60;0.60;;;17.40;99.90;;;;;;5093367;28;20452;-84
2022/05/19 01:10:46;;;;;;;1.90;0.67;;;17.30;99.90;;;;;;5092961;28;20472;-84
2022/05/19 01:13:16;;;;;;;0.60;0.60;;;17.20;99.90;;;;;;5093278;28;20522;-84
2022/05/19 01:15:52;;;;;;;0.60;0.60;;;17.30;99.90;;;;;;5093297;28;20448;-84
2022/05/19 01:18:19;;;;;;;0.73;0.73;;;17.30;99.90;;;;;;5093323;28;20432;-84
2022/05/19 01:20:47;;;;;;;1.27;0.90;;;17.40;99.90;;;;;;5092887;28;20464;-84
2022/05/19 01:23:24;;;;;;;1.00;0.60;;;17.40;99.90;;;;;;5093027;28;20851;-84
2022/05/19 01:25:58;;;;;;;0.97;0.63;;;17.50;99.90;;;;;;5093934;28;20435;-84
2022/05/19 01:28:27;;;;;;;0.43;0.43;;;17.50;99.90;;;;;;5097331;28;20451;-84
2022/05/19 01:30:53;;;;;;;0.67;0.50;;;17.60;99.90;;;;;;5096959;28;20452;-84
2022/05/19 01:33:23;;;;;;;1.27;0.60;;;17.60;99.90;;;;;;5097098;28;20506;-84
2022/05/19 01:35:50;;;;;;;0.50;0.50;;;17.60;99.90;;;;;;5097104;28;20432;-84
2022/05/19 01:38:21;;;;;;;0.50;0.50;;;17.60;99.90;;;;;;5096757;28;20984;-84
2022/05/19 01:41:07;;;;;;;0.87;0.53;;;17.60;99.40;;;;;;5097217;28;20482;-83
2022/05/19 01:43:43;;;;;;;0.90;0.63;;;17.60;99.60;;;;;;5097030;28;20458;-84
2022/05/19 01:46:16;;;;;;;0.70;0.67;;;17.60;98.80;;;;;;5097043;28;20434;-84
2022/05/19 01:48:49;;;;;;;0.60;0.60;;;17.60;98.70;;;;;;5096862;28;20415;-84
2022/05/19 01:51:21;;;;;;;0.87;0.60;;;17.60;99.90;;;;;;5097104;28;20482;-84
2022/05/19 01:53:59;;;;;;;1.43;0.80;;;17.60;99.90;;;;;;5096440;28;20986;-84
2022/05/19 01:56:31;;;;;;;1.10;0.67;;;17.50;99.90;;;;;;5097208;28;20467;-84
2022/05/19 01:59:06;;;;;;;0.60;0.53;;;17.40;99.90;;;;;;5096714;28;20436;-84
2022/05/19 02:01:33;;;;;;;1.00;0.50;;;17.40;99.90;;;;;;5096262;28;20479;-84
2022/05/19 02:04:06;;;;;;;0.63;0.60;;;17.20;99.90;;;;;;5096594;28;20455;-84
2022/05/19 02:06:37;;;;;;;0.50;0.50;;;17.10;99.90;;;;;;5096561;28;20432;-84
2022/05/19 02:09:07;;;;;;;0.80;0.53;;;17.00;99.90;;;;;;5096763;28;20931;-84
2022/05/19 02:11:38;;;;;;;1.17;0.73;;;16.90;99.90;;;;;;5096504;28;20456;-84
2022/05/19 02:14:13;;;;;;;0.80;0.70;;;16.80;99.90;;;;;;5096565;28;20433;-84
2022/05/19 02:16:41;;;;;;;1.43;0.93;;;16.70;99.90;;;;;;5096116;28;20463;-84
2022/05/19 02:19:09;;;;;;;1.13;0.80;;;16.60;99.90;;;;;;5095978;28;20965;-84
2022/05/19 02:21:36;;;;;;;0.40;0.40;;;16.60;99.90;;;;;;5095885;28;20479;-84
2022/05/19 02:24:04;;;;;;;0.50;0.50;;;16.60;99.90;;;;;;5096203;28;20444;-84
2022/05/19 02:26:33;;;;;;;0.40;0.40;;;16.50;99.90;;;;;;5096178;28;20444;-84
2022/05/19 02:29:05;;;;;;;0.70;0.70;;;16.50;99.90;;;;;;5095804;28;20934;-84
2022/05/19 02:31:33;;;;;;;0.70;0.50;;;16.50;99.90;;;;;;5096101;28;20875;-84
2022/05/19 02:34:00;;;;;;;0.63;0.50;;;16.40;99.90;;;;;;5095581;28;20476;-84
2022/05/19 02:36:27;;;;;;;0.60;0.60;;;16.40;99.90;;;;;;5096296;28;20435;-83
2022/05/19 02:38:53;;;;;;;0.70;0.50;;;16.40;99.90;;;;;;5094878;28;20454;-84
2022/05/19 02:41:20;;;;;;;0.50;0.50;;;16.30;99.90;;;;;;5095822;28;20483;-84
2022/05/19 02:43:47;;;;;;;0.50;0.47;;;16.20;99.90;;;;;;5095855;28;20442;-84
2022/05/19 02:46:14;;;;;;;1.87;0.60;;;16.20;99.90;;;;;;5095554;28;20444;-84
2022/05/19 02:48:42;;;;;;;0.50;0.50;;;16.10;99.90;;;;;;5095761;28;20455;-84
2022/05/19 02:51:08;;;;;;;0.73;0.73;;;16.10;99.90;;;;;;5095585;28;20471;-84
2022/05/19 02:53:35;;;;;;;0.50;0.50;;;16.00;99.90;;;;;;5095424;28;20841;-84
2022/05/19 02:56:02;;;;;;;0.87;0.50;;;16.00;99.90;;;;;;5095335;28;20812;-84
2022/05/19 02:58:29;;;;;;;0.53;0.53;;;16.00;99.90;;;;;;5095616;28;20448;-84
2022/05/19 03:00:55;;;;;;;0.70;0.40;;;15.90;99.90;;;;;;5095182;28;20821;-84
2022/05/19 03:03:23;;;;;;;1.53;0.50;;;15.90;99.90;;;;;;5095471;28;20444;-84
2022/05/19 03:05:51;;;;;;;0.87;0.87;;;15.90;99.90;;;;;;5095413;28;20470;-84
2022/05/19 03:08:17;;;;;;;0.50;0.50;;;15.90;99.90;;;;;;5095068;28;20443;-84
2022/05/19 03:10:45;;;;;;;1.00;0.50;;;15.90;99.90;;;;;;5095358;28;20480;-84
2022/05/19 03:13:17;;;;;;;0.50;0.50;;;15.90;99.90;;;;;;5095507;28;20475;-84
2022/05/19 03:15:44;;;;;;;0.50;0.50;;;15.80;99.90;;;;;;5095201;28;20856;-84
2022/05/19 03:18:11;;;;;;;0.70;0.50;;;15.80;99.90;;;;;;5095293;28;20452;-84
2022/05/19 03:20:38;;;;;;;0.70;0.50;;;15.80;99.90;;;;;;5095068;28;20470;-83
2022/05/19 03:23:06;;;;;;;0.50;0.50;;;15.70;99.90;;;;;;5095058;28;20877;-84
2022/05/19 03:25:33;;;;;;;0.50;0.50;;;15.70;99.90;;;;;;5094978;28;20444;-84
2022/05/19 03:28:00;;;;;;;0.47;0.37;;;15.60;99.90;;;;;;5094970;28;20808;-83
2022/05/19 03:30:27;;;;;;;1.80;0.80;;;15.60;99.90;;;;;;5094553;28;20986;-84
2022/05/19 03:32:54;;;;;;;0.60;0.60;;;15.60;99.90;;;;;;5086292;28;20471;-84
2022/05/19 03:35:21;;;;;;;2.60;0.70;;;15.50;99.90;;;;;;5094812;28;20444;-84
2022/05/19 03:37:47;;;;;;;0.70;0.70;;;15.50;99.90;;;;;;5094444;28;20444;-84
2022/05/19 03:40:17;;;;;;;0.63;0.40;;;15.40;99.90;;;;;;5094503;28;20488;-83
2022/05/19 03:42:44;;;;;;;0.33;0.33;;;15.40;99.90;;;;;;5094677;28;20551;-84
2022/05/19 03:45:11;;;;;;;0.53;0.53;;;15.40;99.90;;;;;;5094734;28;20778;-84
2022/05/19 03:47:39;;;;;;;1.37;0.77;;;15.40;99.90;;;;;;5094329;28;20811;-83
2022/05/19 03:50:07;;;;;;;0.80;0.57;;;15.40;99.90;;;;;;5093979;28;20939;-84
2022/05/19 03:52:38;;;;;;;0.73;0.50;;;15.50;99.90;;;;;;5094403;28;20484;-84
2022/05/19 03:55:05;;;;;;;0.47;0.47;;;15.50;99.90;;;;;;5094479;28;20474;-83
2022/05/19 03:57:33;;;;;;;1.27;1.27;;;15.50;99.90;;;;;;5094128;28;20954;-84
2022/05/19 04:00:00;;;;;;;0.47;0.40;;;15.60;99.90;;;;;;5095064;28;20455;-84
2022/05/19 04:02:27;;;;;;;0.53;0.40;;;15.50;99.90;;;;;;5094256;28;20460;-83
2022/05/19 04:04:54;;;;;;;0.50;0.43;;;15.60;99.90;;;;;;5085700;28;20443;-83
2022/05/19 04:07:20;;;;;;;0.80;0.40;;;15.60;99.90;;;;;;5094199;28;20439;-83
2022/05/19 04:09:47;;;;;;;1.20;0.40;;;15.70;99.90;;;;;;5094205;28;20444;-83
2022/05/19 04:12:14;;;;;;;0.93;0.50;;;15.70;99.90;;;;;;5093711;28;21009;-83
2022/05/19 04:14:42;;;;;;;0.70;0.60;;;15.70;99.90;;;;;;5094086;28;20448;-83
2022/05/19 04:17:09;;;;;;;0.53;0.53;;;15.80;99.90;;;;;;5094058;28;20465;-83
2022/05/19 04:19:36;;;;;;;2.53;0.60;;;15.80;99.90;;;;;;5093722;28;20962;-83
2022/05/19 04:22:03;;;;;;;0.43;0.40;;;15.90;99.90;;;;;;5093623;28;20517;-83
2022/05/19 04:24:30;;;;;;;0.40;0.40;;;15.90;99.90;;;;;;5093898;28;20444;-83
2022/05/19 04:26:57;;;;;;;2.07;0.57;;;15.90;99.90;;;;;;5093560;28;20943;-83
2022/05/19 04:29:24;;;;;;;0.50;0.50;;;15.90;99.90;;;;;;5093864;28;20493;-84
2022/05/19 04:31:52;;;;;;;0.50;0.50;;;15.90;99.90;;;;;;5093541;28;20456;-83
2022/05/19 04:34:19;;;;;;;1.47;0.50;;;16.00;99.90;;;;;;5093734;28;20495;-83
2022/05/19 04:36:46;;;;;;;0.53;0.53;;;16.00;99.90;;;;;;5093912;28;20447;-83
2022/05/19 04:39:13;;;;;;;2.10;0.50;;;16.00;99.90;;;;;;5093747;28;20498;-83
2022/05/19 04:41:40;;;;;;;0.53;0.53;;;16.10;99.90;;;;;;5093447;28;20487;-83
2022/05/19 04:44:07;;;;;;;0.77;0.60;;;16.10;99.90;;;;;;5093534;28;20444;-83
2022/05/19 04:46:34;;;;;;;0.63;0.63;;;16.20;99.90;;;;;;5093655;28;20544;-84
2022/05/19 04:49:02;;;;;;;1.30;1.00;;;16.30;99.90;;;;;;5093591;28;20448;-84
2022/05/19 04:51:28;;;;;;;0.60;0.50;;;16.40;99.90;;;;;;5093487;28;20464;-83
2022/05/19 04:53:55;;;;;;;0.40;0.40;;;16.50;99.90;;;;;;5093105;28;20994;-84
2022/05/19 04:56:22;;;;;;;1.17;0.60;;;16.60;99.90;;;;;;5093539;28;20806;-83
2022/05/19 04:58:49;;;;;;;1.30;0.73;;;16.60;99.90;;;;;;5093500;28;20819;-83
2022/05/19 05:01:15;;;;;;;1.60;0.70;;;16.70;99.90;;;;;;5092580;28;20463;-84
2022/05/19 05:03:42;;;;;;;0.57;0.57;;;16.90;99.90;;;;;;5093351;28;20444;-83
2022/05/19 05:06:11;;;;;;;2.20;0.73;;;17.00;99.90;;;;;;5093203;28;20443;-84
2022/05/19 05:08:37;;;;;;;0.80;0.60;;;17.10;99.90;;;;;;5093126;28;20440;-83
2022/05/19 05:11:04;;;;;;;0.63;0.63;;;17.20;99.90;;;;;;5093353;28;20471;-84
2022/05/19 05:13:31;;;;;;;1.17;0.70;;;17.30;99.90;;;;;;5093401;28;20548;-83
2022/05/19 05:15:58;;;;;;;1.23;0.60;;;17.30;99.90;;;;;;5093360;28;20451;-84
2022/05/19 05:18:25;;;;;;;0.60;0.60;;;17.40;99.90;;;;;;5093370;28;20448;-84
2022/05/19 05:20:52;;;;;;;0.90;0.90;;;17.50;99.90;;;;;;5093269;28;20479;-84
2022/05/19 05:23:20;;;;;;;1.50;0.80;;;17.50;99.90;;;;;;5092994;28;20828;-83
2022/05/19 05:25:46;;;;;;;0.97;0.50;;;17.50;99.90;;;;;;5092942;28;20444;-84
2022/05/19 05:28:13;;;;;;;0.80;0.80;;;17.50;99.90;;;;;;5093221;28;20451;-84
2022/05/19 05:30:40;;;;;;;1.17;0.70;;;17.60;99.90;;;;;;5092900;28;20989;-84
2022/05/19 05:33:09;;;;;;;0.77;0.77;;;17.60;99.90;;;;;;5093236;28;20468;-84
2022/05/19 05:35:36;;;;;;;1.03;0.90;;;17.60;99.90;;;;;;5093076;28;20451;-84
2022/05/19 05:38:03;;;;;;;0.50;0.50;;;17.70;99.90;;;;;;5093123;28;20448;-84
2022/05/19 05:40:31;;;;;;;1.13;0.70;;;17.70;99.90;;;;;;5092510;28;20480;-82
2022/05/19 05:43:08;;;;;;;1.23;0.90;;;17.80;99.90;;;;;;5093188;28;20448;-83
2022/05/19 05:45:35;;;;;;;0.93;0.70;;;17.90;99.90;;;;;;5093318;28;20805;-82
2022/05/19 05:48:02;;;;;;;1.00;0.50;;;18.00;99.90;;;;;;5092984;28;20438;-82
2022/05/19 05:50:29;;;;;;;0.60;0.60;;;18.10;99.90;;;;;;5092876;28;20464;-83
2022/05/19 05:52:56;;;;;;;1.57;0.60;;;18.30;99.90;;;;;;5092860;28;20440;-83
2022/05/19 05:55:23;;;;;;;0.60;0.60;;;18.40;99.90;;;;;;5092723;28;20436;-83
2022/05/19 05:57:51;;;;;;;1.33;1.00;;;18.40;99.90;;;;;;5093206;28;20436;-83
2022/05/19 06:00:19;;;;;;;1.00;0.90;;;18.60;99.90;;;;;;5092817;28;20451;-83
2022/05/19 06:02:48;;;;;;;0.93;0.70;;;18.80;99.90;;;;;;5092919;28;20450;-83
2022/05/19 06:05:16;;;;;;;0.80;0.80;;;18.90;99.90;;;;;;5092911;28;20451;-83
2022/05/19 06:07:42;;;;;;;0.73;0.73;;;19.10;99.90;;;;;;5092946;28;20443;-83
2022/05/19 06:10:10;;;;;;;1.67;0.73;;;19.30;99.90;;;;;;5093493;28;20792;-83
2022/05/19 06:12:37;;;;;;;0.73;0.63;;;19.40;99.90;;;;;;5093091;28;20440;-82
2022/05/19 06:15:07;;;;;;;1.80;0.73;;;19.50;99.90;;;;;;5096412;28;20472;-83
2022/05/19 06:17:34;;;;;;;1.13;0.80;;;19.60;99.90;;;;;;5095951;28;20833;-83
2022/05/19 06:20:01;;;;;;;1.00;1.00;;;19.70;99.90;;;;;;5096064;28;20927;-83
2022/05/19 06:22:27;;;;;;;1.07;0.73;;;20.00;99.90;;;;;;5096832;28;20471;-83
2022/05/19 06:24:54;;;;;;;1.67;0.77;;;20.10;99.90;;;;;;5095964;28;20439;-84
2022/05/19 06:27:21;;;;;;;3.37;1.10;;;20.30;99.90;;;;;;5096207;28;20443;-83
2022/05/19 06:29:48;;;;;;;4.23;1.00;;;20.50;99.90;;;;;;5095762;28;20946;-83
2022/05/19 06:32:16;;;;;;;0.83;0.83;;;20.60;99.90;;;;;;5095759;28;20958;-84
2022/05/19 06:34:42;;;;;;;1.83;1.07;;;20.80;99.90;;;;;;5095972;28;20574;-80
2022/05/19 06:37:09;;;;;;;0.80;0.80;;;20.80;99.90;;;;;;5095643;28;20939;-80
2022/05/19 06:39:36;;;;;;;2.23;1.00;;;20.80;99.90;;;;;;5096059;28;20930;-80
2022/05/19 06:42:03;;;;;;;0.87;0.87;;;21.00;99.90;;;;;;5068479;28;20467;-81
2022/05/19 06:44:31;;;;;;;1.77;0.98;;;21.20;99.90;;;;;;5075584;28;20205;-80
2022/05/19 06:46:59;;;;;;;1.42;1.02;;;21.60;99.90;;;;;;5075755;28;20549;-81
2022/05/19 06:49:28;;;;;;;0.75;0.70;;;22.00;99.90;;;;;;5075490;28;20202;-81
2022/05/19 06:51:55;;;;;;;1.75;0.98;;;22.20;99.90;;;;;;5075008;28;20708;-81
2022/05/19 06:54:22;;;;;;;1.05;0.95;;;22.40;99.90;;;;;;5075400;28;20228;-81
2022/05/19 06:56:49;;;;;;;1.45;0.93;;;22.70;99.90;;;;;;5075405;28;20292;-81
2022/05/19 06:59:16;;;;;;;1.45;0.85;;;22.70;99.90;;;;;;5074996;28;20670;-81
2022/05/19 07:01:45;;;;;;;0.93;0.90;;;22.90;99.90;;;;;;5075385;28;20226;-82
2022/05/19 07:04:12;;;;;;;1.90;1.20;;;23.00;99.90;;;;;;5075247;28;20186;-81
2022/05/19 07:06:40;;;;;;;0.80;0.80;;;23.40;99.90;;;;;;5075254;28;20205;-81
2022/05/19 07:09:07;;;;;;;0.88;0.88;;;23.40;99.90;;;;;;5074838;28;20676;-82
2022/05/19 07:11:33;;;;;;;2.15;1.17;;;23.60;99.90;;;;;;5075339;28;20218;-82
2022/05/19 07:14:02;;;;;;;1.52;0.98;;;24.00;99.50;;;;;;5074947;28;20232;-82
2022/05/19 07:16:30;;;;;;;1.00;1.00;;;24.30;98.10;;;;;;5074723;28;20201;-82
2022/05/19 07:21:42;;;;;;;1.23;1.10;;;25.00;96.90;;;;;;5073432;28;20210;-82
2022/05/19 07:24:10;;;;;;;1.48;1.02;;;25.10;97.00;;;;;;5074135;28;20212;-81
2022/05/19 07:26:37;;;;;;;0.90;0.85;;;25.30;96.70;;;;;;5074700;28;20206;-82
2022/05/19 07:29:04;;;;;;;0.70;0.70;;;25.40;96.10;;;;;;5074472;28;20196;-82
2022/05/19 07:31:32;;;;;;;1.40;1.08;;;25.70;95.60;;;;;;5074703;28;20589;-82
2022/05/19 07:33:58;;;;;;;1.05;0.95;;;25.80;94.70;;;;;;5074809;28;20269;-82
2022/05/19 07:36:25;;;;;;;1.38;0.85;;;26.30;93.60;;;;;;5074644;28;20215;-82
2022/05/19 07:38:54;;;;;;;0.82;0.80;;;26.60;92.50;;;;;;5074671;28;20194;-82
2022/05/19 07:41:21;;;;;;;1.02;0.80;;;27.30;91.60;;;;;;5088447;28;20236;-82
2022/05/19 07:43:48;;;;;;;0.70;0.70;;;27.90;88.00;;;;;;5094711;28;20209;-82
2022/05/19 07:46:14;;;;;;;1.77;0.93;;;28.30;86.20;;;;;;5094301;28;20691;-82
2022/05/19 07:48:41;;;;;;;1.30;1.00;;;29.10;82.10;;;;;;5095308;28;20212;-88
2022/05/19 07:51:08;;;;;;;0.90;0.90;;;29.30;81.50;;;;;;5094597;28;20233;-82
2022/05/19 07:53:34;;;;;;;1.13;1.02;;;29.50;79.00;;;;;;5094131;28;20682;-83
2022/05/19 07:56:03;;;;;;;1.10;1.10;;;29.40;76.10;;;;;;5094322;28;20214;-83
2022/05/19 07:58:30;;;;;;;0.80;0.80;;;29.70;76.20;;;;;;5094410;28;20209;-82
2022/05/19 08:00:59;;;;;;;1.27;1.17;;;30.40;76.10;;;;;;5094323;28;20226;-82
2022/05/19 08:03:26;;;;;;;4.25;1.00;;;31.00;73.00;;;;;;5094298;28;20211;-86
2022/05/19 08:05:53;;;;;;;1.38;0.90;;;31.60;69.50;;;;;;5095178;28;20522;-83
2022/05/19 08:08:20;;;;;;;1.55;1.10;;;32.00;68.80;;;;;;5094420;28;20205;-83
2022/05/19 08:10:47;;;;;;;0.88;0.88;;;32.60;67.00;;;;;;5093927;28;20451;-82
2022/05/19 08:16:07;;;;;;;1.05;1.05;;;32.20;65.50;;;;;;5046277;28;20259;-82
2022/05/19 08:18:34;;;;;;;1.15;1.15;;;31.70;66.90;;;;;;5093851;28;20209;-83
2022/05/19 08:21:03;;;;;;;0.90;0.90;;;30.90;68.20;;;;;;5093617;28;20716;-83
2022/05/19 08:23:33;;;;;;;0.95;0.95;;;30.30;69.70;;;;;;5093948;28;20197;-83
2022/05/19 08:26:01;;;;;;;1.23;1.23;;;30.10;71.40;;;;;;5093660;28;20193;-83
2022/05/19 08:28:30;;;;;;;0.90;0.90;;;30.00;72.70;;;;;;5093580;28;20614;-82
2022/05/19 08:30:59;;;;;;;1.92;1.17;;;29.80;72.10;;;;;;5093674;28;20226;-82
2022/05/19 08:33:26;;;;;;;1.10;1.10;;;29.60;72.40;;;;;;5093450;28;20574;-83
2022/05/19 08:35:53;;;;;;;1.10;1.00;;;29.70;72.30;;;;;;5092549;28;20715;-82
2022/05/19 08:38:21;;;;;;;2.22;0.88;;;29.40;73.40;;;;;;5093450;28;20197;-83
2022/05/19 08:40:50;;;;;;;0.90;0.90;;;29.70;75.10;;;;;;5093236;28;20250;-82
2022/05/19 08:43:20;;;;;;;1.38;1.27;;;29.90;74.30;;;;;;5093522;28;20262;-82
2022/05/19 08:45:53;;;;;;;1.08;1.08;;;29.80;72.50;;;;;;5093439;28;20203;-82
2022/05/19 08:48:23;;;;;;;1.30;1.20;;;29.60;74.60;;;;;;5093640;28;20210;-82
2022/05/19 08:50:54;;;;;;;1.08;0.98;;;29.50;76.60;;;;;;5093693;28;20223;-82
2022/05/19 08:53:22;;;;;;;1.00;0.98;;;29.30;75.80;;;;;;5093695;28;20198;-82
2022/05/19 08:55:54;;;;;;;1.35;0.95;;;29.30;75.10;;;;;;5093744;28;20227;-82
2022/05/19 08:58:47;;;;;;;0.90;0.90;;;29.20;76.50;;;;;;5093788;28;20210;-82
2022/05/19 09:01:22;;;;;;;1.05;1.05;;;29.20;78.00;;;;;;5089827;28;20729;-83
2022/05/19 09:04:02;;;;;;;1.08;1.08;;;29.40;77.20;;;;;;5093172;28;20665;-83
2022/05/19 09:07:56;;;;;;;1.20;1.10;;;29.50;77.40;;;;;;5093452;28;20256;-83
2022/05/19 09:09:37;;;;;;;1.25;1.15;;;29.80;77.20;;;;;;5092899;28;20290;-83
2022/05/19 09:12:08;;;;;;;1.20;1.20;;;30.00;76.20;;;;;;5093385;28;20231;-82
2022/05/19 09:14:36;;;;;;;1.70;1.60;;;30.20;75.70;;;;;;5093338;28;20204;-82
2022/05/19 09:17:08;;;;;;;1.52;1.17;;;30.30;74.80;;;;;;5093246;28;20203;-82
2022/05/19 09:19:38;;;;;;;1.33;0.95;;;30.40;76.10;;;;;;5094165;28;20237;-82
2022/05/19 09:22:09;;;;;;;1.20;1.10;;;30.60;74.30;;;;;;5092968;28;20239;-82
2022/05/19 09:24:36;;;;;;;1.75;1.40;;;30.40;74.90;;;;;;5093338;28;20259;-82
2022/05/19 09:27:05;;;;;;;2.25;1.40;;;30.40;75.80;;;;;;5093195;28;20214;-82
2022/05/19 09:29:35;;;;;;;2.85;1.05;;;30.10;76.20;;;;;;5092893;28;20697;-82
2022/05/19 09:32:13;;;;;;;1.30;1.20;;;29.90;77.10;;;;;;5093116;28;20229;-82
2022/05/19 09:34:43;;;;;;;1.40;1.40;;;29.70;77.60;;;;;;5092817;28;20691;-82
2022/05/19 09:37:12;;;;;;;1.60;1.50;;;29.60;77.60;;;;;;5093395;28;20187;-82
2022/05/19 09:39:49;;;;;;;1.30;1.20;;;29.60;77.70;;;;;;5092985;28;20212;-83
2022/05/19 09:42:20;;;;;;;2.15;1.27;;;29.60;78.70;;;;;;5092762;28;20602;-82
2022/05/19 09:44:51;;;;;;;2.10;1.45;;;29.70;78.10;;;;;;5093085;28;20190;-82
2022/05/19 09:47:25;;;;;;;6.10;1.58;;;29.80;77.70;;;;;;5094039;28;20187;-82
2022/05/19 09:49:56;;;;;;;1.38;1.27;;;29.90;78.70;;;;;;5096904;28;20242;-81
2022/05/19 09:52:27;;;;;;;1.45;1.45;;;29.70;76.90;;;;;;5096789;28;20248;-81
2022/05/19 09:54:56;;;;;;;2.58;1.33;;;29.70;78.10;;;;;;5096758;28;20208;-81
2022/05/19 09:57:27;;;;;;;1.30;1.20;;;29.70;79.30;;;;;;5097243;28;20201;-82
2022/05/19 09:59:58;;;;;;;1.20;1.10;;;29.70;77.30;;;;;;5096634;28;20189;-87
2022/05/19 10:02:33;;;;;;;1.45;1.35;;;29.60;78.60;;;;;;5096481;28;20228;-86
2022/05/19 10:05:02;;;;;;;1.80;1.70;;;29.70;79.20;;;;;;5096939;28;20181;-86
2022/05/19 10:07:35;;;;;;;1.65;1.30;;;29.60;79.10;;;;;;5097139;28;20650;-86
2022/05/19 10:10:04;;;;;;;1.83;1.08;;;29.70;80.20;;;;;;5096916;28;20188;-87
2022/05/19 10:12:44;;;;;;;2.67;1.67;;;29.70;77.10;;;;;;5096546;28;20581;-87
2022/05/19 10:15:13;;;;;;;1.33;1.23;;;29.50;76.60;;;;;;5096432;28;20344;-86
2022/05/19 10:17:56;;;;;;;2.05;1.40;;;29.50;79.40;;;;;;5096347;28;20706;-87
2022/05/19 10:20:25;;;;;;;0.80;0.80;;;29.80;79.30;;;;;;5096457;28;20186;-86
2022/05/19 10:23:09;;;;;;;1.25;1.15;;;29.90;78.00;;;;;;5096563;28;20224;-87
2022/05/19 10:25:59;;;;;;;1.42;1.33;;;30.10;77.70;;;;;;5096618;28;20626;-86
2022/05/19 10:31:41;;;;;;;1.02;0.98;;;30.50;76.00;;;;;;5096304;28;20220;-86
2022/05/19 10:34:28;;;;;;;1.00;1.00;;;30.70;73.80;;;;;;5096343;28;20197;-86
2022/05/19 10:37:00;;;;;;;1.13;1.02;;;30.70;73.80;;;;;;5096157;28;20182;-85
2022/05/19 10:39:51;;;;;;;1.27;1.17;;;30.80;73.40;;;;;;5096046;28;20185;-87
2022/05/19 10:42:27;;;;;;;1.65;1.55;;;30.90;73.30;;;;;;5095963;28;20603;-86
2022/05/19 10:45:21;;;;;;;1.27;1.02;;;31.00;72.40;;;;;;5096566;28;20208;-87
2022/05/19 10:48:15;;;;;;;1.05;0.77;;;30.90;67.90;;;;;;5095894;28;20218;-85
2022/05/19 10:50:52;;;;;;;1.00;0.90;;;30.80;67.60;;;;;;5095913;28;20270;-85
2022/05/19 10:53:46;;;;;;;0.85;0.85;;;30.80;69.00;;;;;;5095512;28;20178;-85
2022/05/19 10:56:30;;;;;;;1.75;1.08;;;31.00;68.50;;;;;;5095689;28;20232;-85
2022/05/19 10:59:18;;;;;;;1.05;0.95;;;31.20;65.10;;;;;;5094465;28;20246;-86
2022/05/19 11:01:58;;;;;;;0.98;0.98;;;31.20;70.10;;;;;;5095254;28;20229;-85
2022/05/19 11:04:42;;;;;;;1.42;1.33;;;31.40;72.60;;;;;;5095647;28;20191;-85
2022/05/19 11:07:31;;;;;;;1.00;1.00;;;31.50;72.40;;;;;;5095767;28;20188;-85
2022/05/19 11:10:08;;;;;;;1.80;1.02;;;31.60;73.50;;;;;;5095630;28;20219;-85
2022/05/19 11:12:47;;;;;;;0.95;0.80;;;31.40;68.80;;;;;;5095269;28;20195;-85
2022/05/19 11:15:21;;;;;;;0.70;0.70;;;31.30;66.00;;;;;;5094863;28;20680;-83
2022/05/19 11:17:59;;;;;;;0.90;0.90;;;31.10;64.10;;;;;;5095213;28;20641;-85
2022/05/19 11:20:30;;;;;;;0.75;0.75;;;30.70;63.30;;;;;;5095101;28;20206;-85
2022/05/19 11:23:04;;;;;;;0.98;0.80;;;30.70;65.40;;;;;;5095105;28;20189;-85
2022/05/19 11:28:29;;;;;;;0.80;0.80;;;30.70;66.80;;;;;;5095094;28;20247;-85
2022/05/19 11:31:01;;;;;;;1.63;1.38;;;30.50;66.10;;;;;;5094785;28;20217;-85
2022/05/19 11:33:35;;;;;;;1.52;1.23;;;30.50;63.60;;;;;;5094919;28;20208;-84
2022/05/19 11:36:06;;;;;;;2.72;1.08;;;30.40;65.70;;;;;;5094524;28;20206;-84
2022/05/19 11:38:41;;;;;;;3.45;0.90;;;30.30;67.20;;;;;;5094821;28;20554;-85
2022/05/19 11:41:13;;;;;;;1.55;1.00;;;30.40;65.20;;;;;;5094312;28;20232;-84
2022/05/19 11:43:44;;;;;;;1.00;1.00;;;30.40;64.10;;;;;;5094648;28;20663;-85
2022/05/19 11:46:15;;;;;;;6.35;1.10;;;30.40;64.80;;;;;;5094548;28;20187;-84
2022/05/19 11:57:21;;;;;;;1.27;1.17;;;30.20;61.40;;;;;;5094206;28;20660;-84
2022/05/19 11:59:50;;;;;;;1.02;0.85;;;30.10;63.80;;;;;;5094531;28;20178;-84
2022/05/19 12:02:26;;;;;;;1.35;0.95;;;30.10;64.10;;;;;;5094235;28;20229;-85
2022/05/19 12:04:58;;;;;;;0.70;0.70;;;30.20;64.90;;;;;;5094562;28;20258;-85
2022/05/19 12:07:37;;;;;;;0.98;0.90;;;30.30;63.00;;;;;;5094287;28;20195;-84
2022/05/19 12:10:07;;;;;;;0.80;0.80;;;30.30;64.30;;;;;;5094183;28;20212;-84
2022/05/19 12:12:40;;;;;;;1.00;0.90;;;30.10;63.40;;;;;;5093869;28;20674;-84
2022/05/19 12:15:19;;;;;;;1.08;0.80;;;29.90;65.30;;;;;;5094992;28;20217;-84
2022/05/19 12:17:52;;;;;;;0.80;0.80;;;29.70;64.30;;;;;;5094195;28;20185;-84
2022/05/19 12:20:54;;;;;;;0.88;0.88;;;29.50;62.90;;;;;;5093772;28;20636;-84
2022/05/19 12:23:28;;;;;;;0.77;0.77;;;29.50;65.50;;;;;;5094097;28;20226;-84
2022/05/19 12:26:00;;;;;;;1.00;0.90;;;29.40;64.70;;;;;;5094052;28;20220;-85
2022/05/19 12:28:40;;;;;;;1.13;0.80;;;29.30;63.50;;;;;;5093686;28;20662;-84
2022/05/19 12:34:03;;;;;;;0.60;0.60;;;29.30;64.20;;;;;;5094311;28;20192;-84
2022/05/19 12:36:38;;;;;;;0.68;0.68;;;29.30;63.10;;;;;;5093733;28;20223;-84
2022/05/19 12:39:12;;;;;;;3.85;1.23;;;29.40;63.60;;;;;;5093883;28;20209;-85
2022/05/19 12:41:54;;;;;;;1.08;0.90;;;29.30;66.00;;;;;;5093493;28;20718;-84
2022/05/19 12:44:40;;;;;;;1.00;0.82;;;29.30;64.90;;;;;;5093542;28;20663;-85
2022/05/19 12:47:11;;;;;;;2.00;0.80;;;29.30;64.00;;;;;;5093735;28;20201;-85
2022/05/19 12:49:38;;;;;;;0.80;0.77;;;29.20;63.40;;;;;;5093555;28;20190;-85
2022/05/19 12:52:13;;;;;;;1.45;0.93;;;29.20;59.90;;;;;;5093247;28;20729;-85
2022/05/19 12:54:52;;;;;;;0.93;0.90;;;29.10;61.50;;;;;;5093918;28;20221;-85
2022/05/19 12:57:31;;;;;;;1.08;1.00;;;29.00;62.70;;;;;;5093290;28;20193;-85
2022/05/19 13:00:20;;;;;;;0.70;0.70;;;28.90;61.00;;;;;;5093372;28;20186;-84
2022/05/19 13:02:59;;;;;;;1.30;1.02;;;28.90;62.40;;;;;;5080243;28;20267;-84
2022/05/19 13:05:33;;;;;;;0.98;0.98;;;28.90;64.60;;;;;;5093540;28;20194;-84
2022/05/19 13:08:10;;;;;;;0.93;0.70;;;28.90;63.30;;;;;;5093395;28;20205;-84
2022/05/19 13:10:40;;;;;;;0.98;0.93;;;28.90;63.70;;;;;;5093098;28;20642;-84
2022/05/19 13:13:19;;;;;;;0.80;0.80;;;28.80;62.10;;;;;;5093301;28;20542;-84
2022/05/19 13:15:54;;;;;;;1.15;1.00;;;28.80;61.90;;;;;;5093310;28;20205;-84
2022/05/19 13:18:27;;;;;;;1.27;0.85;;;28.80;62.80;;;;;;5093332;28;20200;-84
2022/05/19 13:21:05;;;;;;;0.88;0.88;;;28.80;62.40;;;;;;5093302;28;20715;-86
2022/05/19 13:23:32;;;;;;;0.85;0.70;;;28.80;59.90;;;;;;5096916;28;20208;-83
2022/05/19 13:26:04;;;;;;;1.02;0.80;;;28.80;60.90;;;;;;5097126;28;20672;-83
2022/05/19 13:31:21;;;;;;;1.45;1.20;;;28.80;60.60;;;;;;5097275;28;20220;-84